Northport NY Webcam more information Northport NY Webcam


Visit our other weather sites:

Template documentation
and downloads

And another site



Nearby METAR Reports


Warning: A non-numeric value encountered in /home/portan24/public_html/weather28/metar/wsMetarTxt.php on line 608

Warning: A non-numeric value encountered in /home/portan24/public_html/weather28/metar/wsMetarTxt.php on line 608
   
EBBR - Brussels International Airport, Belgium
Distance from station: W 9 mi
Updated: Sep 18 2018 5:50 pm
Clear  
Clear  
   Wind: South 4.6 mph
Wind: South 4.6 mph
Temperature: 59°F
Dew Point: 53.6°F
Humidity: 82%
Barometer: 30 inHg
Visibility: More than 6 mi
Cloud details: Clear m
EBBR 182150Z 19004KT CAVOK 15/12 Q1016 NOSIG
EBBE - Beauvechain (Bevekom), Belgium
Distance from station: SSE 10 mi
Updated: Sep 18 2018 5:55 pm
Clear  
Clear  
   Wind: SSW 4.6 mph
Wind: SSW 4.6 mph
Temperature: 64.4°F
Dew Point: 55.4°F
Humidity: 73%
Barometer: 30.03 inHg
Clouds: Clear
Visibility: More than 6 mi
Cloud details: Clear m
EBBE 182155Z AUTO 20004KT 9999 NCD 18/13 Q1017 BLU
EBDT - Schaffen, Belgium
Distance from station: ENE 18 mi
Updated: Sep 18 2018 5:55 pm
Partly Cloudy  
Partly Cloudy  
   Wind: SW 3.5 mph
Wind: SW 3.5 mph
Temperature: 64.4°F
Dew Point: 55.4°F
Humidity: 73%
Barometer: 30 inHg
Clouds: Partly Cloudy
Visibility: More than 6 mi
Cloud details: Partly Cloudy 6706 m
EBDT 182155Z AUTO 23003KT 9999 SCT220/// 18/13 Q1016 BLU
EBAW - Antwerp/Deurne, Belgium
Distance from station: NNW 23 mi
Updated: Sep 18 2018 5:50 pm
Clear  
Clear  
   Wind: South 4.6 mph
Wind: South 4.6 mph
Temperature: 64.4°F
Dew Point: 53.6°F
Humidity: 68%
Barometer: 30 inHg
Visibility: More than 6 mi
Cloud details: Clear m
EBAW 182150Z 18004KT CAVOK 18/12 Q1016 NOSIG
EBCI - Charleroi/Gosselies, Belgium
Distance from station: SSW 32 mi
Updated: Sep 18 2018 5:50 pm
Clear  
Clear  
   Wind: WSW 2.3 mph
Wind: WSW 2.3 mph
Temperature: 60.8°F
Dew Point: 55.4°F
Humidity: 83%
Barometer: 30.03 inHg
Visibility: More than 6 mi
Cloud details: Clear m
EBCI 182150Z 24002KT CAVOK 16/13 Q1017 NOSIG
EBLG - Bierset/Liege, Belgium
Distance from station: ESE 38 mi
Updated: Sep 18 2018 5:50 pm
Clear  
Clear  
   Wind: West 3.5 mph
Wind: West 3.5 mph
Temperature: 64.4°F
Dew Point: 55.4°F
Humidity: 73%
Barometer: 30.03 inHg
Visibility: More than 6 mi
Cloud details: Clear m
EBLG 182150Z 28003KT 250V310 CAVOK 18/13 Q1017 NOSIG

Script developed by  Saratoga-weather.org Adapted for the template by  Weerstation Leuven

You find our weather info also at:

Weather Underground

AWEKAS

Citizen Weather Observer Program (CWOP)

Equipment we use:

Weather-station
Davis VP2

Davis VP2